createdAt,value
2019-04-14T00:00:55.384Z,50.60
2019-04-14T00:03:39.140Z,51.75
2019-04-14T00:06:11.177Z,50.90
2019-04-14T00:08:43.756Z,51.13
2019-04-14T00:11:15.422Z,53.45
2019-04-14T00:13:47.838Z,56.80
2019-04-14T00:16:20.666Z,59.83
2019-04-14T00:18:53.307Z,67.35
2019-04-14T00:21:26.092Z,74.42
2019-04-14T00:23:58.744Z,68.25
2019-04-14T00:26:31.828Z,68.57
2019-04-14T00:29:02.870Z,67.42
2019-04-14T00:31:35.034Z,65.50
2019-04-14T00:34:16.059Z,71.85
2019-04-14T00:37:09.887Z,71.25
2019-04-14T00:39:44.510Z,71.28
2019-04-14T00:42:34.113Z,74.35
2019-04-14T00:45:11.210Z,66.65
2019-04-14T00:48:14.438Z,72.22
2019-04-14T00:50:45.151Z,76.90
2019-04-14T00:53:17.037Z,73.90
2019-04-14T00:55:49.014Z,76.12
2019-04-14T00:58:21.457Z,76.67
2019-04-14T01:00:53.810Z,80.62
2019-04-14T01:03:26.575Z,75.75
2019-04-14T01:05:59.039Z,72.08
2019-04-14T01:08:31.426Z,82.42
2019-04-14T01:11:03.089Z,78.95
2019-04-14T01:13:35.399Z,80.15
2019-04-14T01:16:12.168Z,81.20
2019-04-14T01:18:40.777Z,73.40
2019-04-14T01:21:13.132Z,72.78
2019-04-14T01:23:45.468Z,70.92
2019-04-14T01:26:18.113Z,74.17
2019-04-14T01:28:50.449Z,72.25
2019-04-14T01:31:22.972Z,79.82
2019-04-14T01:33:55.450Z,80.22
2019-04-14T01:36:27.688Z,74.37
2019-04-14T01:39:00.250Z,73.00
2019-04-14T01:41:32.516Z,77.55
2019-04-14T01:44:04.684Z,70.85
2019-04-14T01:46:37.370Z,73.00
2019-04-14T01:49:09.359Z,78.22
2019-04-14T01:51:52.878Z,74.37
2019-04-14T01:54:43.057Z,64.47
2019-04-14T01:57:37.090Z,70.52
2019-04-14T02:00:28.894Z,67.32
2019-04-14T02:03:01.862Z,63.40
2019-04-14T02:05:34.292Z,55.63
2019-04-14T02:08:06.918Z,56.75
2019-04-14T02:10:39.203Z,53.60
2019-04-14T02:13:11.448Z,53.33
2019-04-14T02:15:44.264Z,47.85
2019-04-14T02:18:16.397Z,49.55
2019-04-14T02:20:48.933Z,49.35
2019-04-14T02:23:21.459Z,49.20
2019-04-14T02:25:53.643Z,45.58
2019-04-14T02:28:26.374Z,47.30
2019-04-14T02:31:10.347Z,51.05
2019-04-14T02:34:02.216Z,47.25
2019-04-14T02:36:30.387Z,47.30
2019-04-14T02:39:07.965Z,46.58
2019-04-14T02:44:16.131Z,52.08
2019-04-14T02:46:46.000Z,48.05
2019-04-14T02:49:19.155Z,46.15
2019-04-14T02:51:49.722Z,49.23
2019-04-14T02:54:36.684Z,49.45
2019-04-14T02:59:30.392Z,49.25
2019-04-14T03:02:19.552Z,47.67
2019-04-14T03:04:33.845Z,52.17
2019-04-14T03:12:16.922Z,52.45
2019-04-14T03:14:47.926Z,53.13
2019-04-14T03:17:58.352Z,57.20
2019-04-14T03:20:59.160Z,54.35
2019-04-14T03:23:48.739Z,53.90
2019-04-14T03:26:17.714Z,59.13
2019-04-14T03:28:54.136Z,57.43
2019-04-14T03:31:53.619Z,57.67
2019-04-14T03:34:21.399Z,67.15
2019-04-14T03:39:10.531Z,67.55
2019-04-14T03:44:23.383Z,68.47
2019-04-14T03:46:49.022Z,62.50
2019-04-14T03:49:24.581Z,65.90
2019-04-14T03:52:04.068Z,66.35
2019-04-14T03:54:20.522Z,68.90
2019-04-14T03:56:55.490Z,66.30
2019-04-14T03:59:26.470Z,62.05
2019-04-14T04:01:58.586Z,65.78
2019-04-14T04:04:30.139Z,67.35
2019-04-14T04:07:01.842Z,67.12
2019-04-14T04:09:36.994Z,65.87
2019-04-14T04:12:09.554Z,70.05
2019-04-14T04:14:41.919Z,73.78
2019-04-14T04:17:31.917Z,64.42
2019-04-14T04:20:22.339Z,64.95
2019-04-14T04:23:22.715Z,66.35
2019-04-14T04:26:14.726Z,69.12
2019-04-14T04:28:54.393Z,64.40
2019-04-14T04:31:43.923Z,64.87
2019-04-14T04:34:29.510Z,64.55
2019-04-14T04:37:19.571Z,64.65
2019-04-14T04:39:52.041Z,76.33
2019-04-14T04:42:24.363Z,65.90
2019-04-14T04:44:56.003Z,67.45
2019-04-14T04:47:27.811Z,68.75
2019-04-14T04:50:00.045Z,69.77
2019-04-14T04:52:32.262Z,73.90
2019-04-14T04:55:04.622Z,69.10
2019-04-14T04:57:37.309Z,80.00
2019-04-14T05:00:11.433Z,75.92
2019-04-14T05:02:42.394Z,84.72
2019-04-14T05:06:07.228Z,76.55
2019-04-14T05:08:41.225Z,78.83
2019-04-14T05:11:18.704Z,77.08
2019-04-14T05:13:49.552Z,79.42
2019-04-14T05:16:21.435Z,84.40
2019-04-14T05:18:53.389Z,82.67
2019-04-14T05:21:25.620Z,84.67
2019-04-14T05:23:56.386Z,84.00
2019-04-14T05:26:28.741Z,81.95
2019-04-14T05:29:01.312Z,86.22
2019-04-14T05:31:33.649Z,81.25
2019-04-14T05:34:06.512Z,82.17
2019-04-14T05:36:38.897Z,81.82
2019-04-14T05:39:11.377Z,79.27
2019-04-14T05:41:54.989Z,79.10
2019-04-14T05:44:18.542Z,83.50
2019-04-14T05:46:51.316Z,83.00
2019-04-14T05:49:31.801Z,81.20
2019-04-14T05:51:56.658Z,80.83
2019-04-14T05:54:29.659Z,82.12
2019-04-14T05:57:02.328Z,80.47
2019-04-14T05:59:33.536Z,89.90
2019-04-14T06:02:04.916Z,78.85
2019-04-14T06:04:37.387Z,87.17
2019-04-14T06:07:09.149Z,76.87
2019-04-14T06:09:40.256Z,84.28
2019-04-14T06:12:12.564Z,84.42
2019-04-14T06:14:43.504Z,89.83
2019-04-14T06:17:14.445Z,88.30
2019-04-14T06:19:45.976Z,85.47
2019-04-14T06:22:17.425Z,89.58
2019-04-14T06:24:48.673Z,83.70
2019-04-14T06:27:19.478Z,82.95
2019-04-14T06:29:52.363Z,86.15
2019-04-14T06:32:49.123Z,84.52
2019-04-14T06:35:37.651Z,82.25
2019-04-14T06:38:15.090Z,84.03
2019-04-14T06:40:50.482Z,86.47
2019-04-14T06:43:22.327Z,90.50
2019-04-14T06:45:54.189Z,91.15
2019-04-14T06:48:25.539Z,87.45
2019-04-14T06:50:57.430Z,108.80
2019-04-14T06:53:28.978Z,111.47
2019-04-14T06:56:00.447Z,100.65
2019-04-14T06:58:32.595Z,86.15
2019-04-14T07:01:04.375Z,81.47
2019-04-14T07:03:35.654Z,82.35
2019-04-14T07:06:07.308Z,81.35
2019-04-14T07:08:41.486Z,87.30
2019-04-14T07:11:13.283Z,78.55
2019-04-14T07:13:48.020Z,74.12
2019-04-14T07:16:18.146Z,80.12
2019-04-14T07:18:50.056Z,83.00
2019-04-14T07:21:21.034Z,77.47
2019-04-14T07:23:52.513Z,73.55
2019-04-14T07:26:27.179Z,75.85
2019-04-14T07:28:58.990Z,79.27
2019-04-14T07:31:42.947Z,79.62
2019-04-14T07:34:27.894Z,77.92
2019-04-14T07:37:30.809Z,70.62
2019-04-14T07:40:09.872Z,77.30
2019-04-14T07:42:58.315Z,75.83
2019-04-14T07:45:41.113Z,74.15
2019-04-14T07:48:18.426Z,69.07
2019-04-14T07:51:08.041Z,83.25
2019-04-14T07:53:52.872Z,78.92
2019-04-14T07:56:41.911Z,76.80
2019-04-14T07:59:22.981Z,75.45
2019-04-14T08:02:12.167Z,70.85
2019-04-14T08:04:48.330Z,62.17
2019-04-14T08:07:19.959Z,69.27
2019-04-14T08:09:52.322Z,66.67
2019-04-14T08:12:24.023Z,64.32
2019-04-14T08:14:55.666Z,65.03
2019-04-14T08:17:27.674Z,64.27
2019-04-14T08:19:59.182Z,56.95
2019-04-14T08:22:31.004Z,59.00
2019-04-14T08:25:02.146Z,63.30
2019-04-14T08:27:33.245Z,62.25
2019-04-14T08:30:05.386Z,64.60
2019-04-14T08:32:37.495Z,58.05
2019-04-14T08:35:09.534Z,60.38
2019-04-14T08:37:41.602Z,62.03
2019-04-14T08:40:14.297Z,63.83
2019-04-14T08:42:57.264Z,58.50
2019-04-14T08:45:50.949Z,59.45
2019-04-14T08:48:42.845Z,61.80
2019-04-14T08:51:34.444Z,62.65
2019-04-14T08:54:30.763Z,63.30
2019-04-14T08:57:14.159Z,63.92
2019-04-14T08:59:54.242Z,58.45
2019-04-14T09:02:53.464Z,58.73
2019-04-14T09:05:52.874Z,59.23
2019-04-14T09:08:28.158Z,71.55
2019-04-14T09:11:03.740Z,65.57
2019-04-14T09:13:35.651Z,58.87
2019-04-14T09:16:06.415Z,59.87
2019-04-14T09:18:38.477Z,58.63
2019-04-14T09:21:09.460Z,55.20
2019-04-14T09:23:40.287Z,60.92
2019-04-14T09:26:11.666Z,53.35
2019-04-14T09:28:43.617Z,58.28
2019-04-14T09:31:14.960Z,59.65
2019-04-14T09:33:46.356Z,59.77
2019-04-14T09:36:18.065Z,56.40
2019-04-14T09:38:49.669Z,123.65
2019-04-14T09:41:21.023Z,64.60
2019-04-14T09:43:52.372Z,56.05
2019-04-14T09:46:23.740Z,57.47
2019-04-14T09:48:55.146Z,53.40
2019-04-14T09:51:26.494Z,56.90
2019-04-14T09:53:57.563Z,55.33
2019-04-14T09:56:29.420Z,55.13
2019-04-14T09:59:01.571Z,52.00
2019-04-14T10:01:33.175Z,52.80
2019-04-14T10:04:04.795Z,54.40
2019-04-14T10:06:36.306Z,56.30
2019-04-14T10:09:08.452Z,57.73
2019-04-14T10:11:48.398Z,55.40
2019-04-14T10:14:13.665Z,55.87
2019-04-14T10:16:45.642Z,89.30
2019-04-14T10:19:16.754Z,54.90
2019-04-14T10:21:48.432Z,59.13
2019-04-14T10:24:20.222Z,53.30
2019-04-14T10:26:51.875Z,52.87
2019-04-14T10:29:23.049Z,57.10
2019-04-14T10:31:55.257Z,60.80
2019-04-14T10:34:27.219Z,53.53
2019-04-14T10:36:58.593Z,53.67
2019-04-14T10:39:29.909Z,53.77
2019-04-14T10:42:01.580Z,52.80
2019-04-14T10:44:32.635Z,55.57
2019-04-14T10:47:03.712Z,60.90
2019-04-14T10:49:35.432Z,52.30
2019-04-14T10:52:06.792Z,52.53
2019-04-14T10:54:38.329Z,51.67
2019-04-14T10:57:10.044Z,53.10
2019-04-14T10:59:41.846Z,54.23
2019-04-14T11:02:13.221Z,56.67
2019-04-14T11:04:44.990Z,54.93
2019-04-14T11:07:34.471Z,51.00
2019-04-14T11:10:06.915Z,53.97
2019-04-14T11:12:38.265Z,55.90
2019-04-14T11:15:10.475Z,58.33
2019-04-14T11:17:42.262Z,56.60
2019-04-14T11:20:13.950Z,55.67
2019-04-14T11:22:46.261Z,50.60
2019-04-14T11:25:17.674Z,50.40
2019-04-14T11:27:48.471Z,50.20
2019-04-14T11:30:23.795Z,53.20
2019-04-14T11:33:01.503Z,58.43
2019-04-14T11:35:40.483Z,51.70
2019-04-14T11:38:19.616Z,60.43
2019-04-14T11:40:52.913Z,51.30
2019-04-14T11:43:24.216Z,47.90
2019-04-14T11:45:55.826Z,49.47
2019-04-14T11:48:27.895Z,49.83
2019-04-14T11:50:59.283Z,45.00
2019-04-14T11:53:31.062Z,46.13
2019-04-14T11:56:03.097Z,47.20
2019-04-14T11:58:35.139Z,43.33
2019-04-14T12:01:19.532Z,48.43
2019-04-14T12:04:09.698Z,46.00
2019-04-14T12:07:00.111Z,47.77
2019-04-14T12:09:35.536Z,48.03
2019-04-14T12:12:09.722Z,51.80
2019-04-14T12:14:41.259Z,44.53
2019-04-14T12:17:13.124Z,44.30
2019-04-14T12:19:45.191Z,47.10
2019-04-14T12:22:17.553Z,43.70
2019-04-14T12:24:48.763Z,44.93
2019-04-14T12:27:21.121Z,42.00
2019-04-14T12:29:52.756Z,45.27
2019-04-14T12:32:24.512Z,34.40
2019-04-14T12:34:57.488Z,40.93
2019-04-14T12:37:28.791Z,42.50
2019-04-14T12:40:00.688Z,40.93
2019-04-14T12:42:53.670Z,43.63
2019-04-14T12:45:38.194Z,49.13
2019-04-14T12:48:44.182Z,42.37
2019-04-14T12:51:20.965Z,40.70
2019-04-14T12:53:52.570Z,46.53
2019-04-14T12:56:26.377Z,45.83
2019-04-14T12:59:16.784Z,41.07
2019-04-14T13:02:16.855Z,38.57
2019-04-14T13:04:48.334Z,37.73
2019-04-14T13:07:19.110Z,36.53
2019-04-14T13:09:51.275Z,39.20
2019-04-14T13:12:22.954Z,36.83
2019-04-14T13:14:54.322Z,35.40
2019-04-14T13:17:26.057Z,33.63
2019-04-14T13:19:56.843Z,36.83
2019-04-14T13:22:33.924Z,32.23
2019-04-14T13:25:00.964Z,35.57
2019-04-14T13:27:32.649Z,36.53
2019-04-14T13:30:04.450Z,35.20
2019-04-14T13:32:36.552Z,32.07
2019-04-14T13:35:08.280Z,32.60
2019-04-14T13:37:40.345Z,30.73
2019-04-14T13:40:11.312Z,31.53
2019-04-14T13:42:43.041Z,27.57
2019-04-14T13:45:14.385Z,34.43
2019-04-14T13:47:45.549Z,31.53
2019-04-14T13:50:17.329Z,30.20
2019-04-14T13:52:48.897Z,29.63
2019-04-14T13:55:20.020Z,30.70
2019-04-14T13:57:51.795Z,29.17
2019-04-14T14:00:23.758Z,34.87
2019-04-14T14:02:55.806Z,34.53
2019-04-14T14:05:26.810Z,31.50
2019-04-14T14:07:57.568Z,27.30
2019-04-14T14:10:30.301Z,29.70
2019-04-14T14:13:21.575Z,28.17
2019-04-14T14:16:10.891Z,27.57
2019-04-14T14:18:59.227Z,29.37
2019-04-14T14:21:46.163Z,25.33
2019-04-14T14:24:27.944Z,25.70
2019-04-14T14:26:59.209Z,28.80
2019-04-14T14:29:30.595Z,23.87
2019-04-14T14:32:05.398Z,26.40
2019-04-14T14:34:36.148Z,23.50
2019-04-14T14:37:08.207Z,23.53
2019-04-14T14:39:39.876Z,24.20
2019-04-14T14:42:11.440Z,23.97
2019-04-14T14:44:58.771Z,23.80
2019-04-14T14:47:31.828Z,26.10
2019-04-14T14:50:21.399Z,23.27
2019-04-14T14:52:52.846Z,23.57
2019-04-14T14:55:24.501Z,23.07
2019-04-14T14:57:55.834Z,27.30
2019-04-14T15:00:36.603Z,35.13
2019-04-14T15:03:08.130Z,29.40
2019-04-14T15:05:40.350Z,28.30
2019-04-14T15:08:14.090Z,27.03
2019-04-14T15:10:46.367Z,25.17
2019-04-14T15:13:17.194Z,29.90
2019-04-14T15:15:48.646Z,30.03
2019-04-14T15:18:20.547Z,28.30
2019-04-14T15:20:52.338Z,24.57
2019-04-14T15:23:25.206Z,29.53
2019-04-14T15:25:57.024Z,25.80
2019-04-14T15:28:29.268Z,25.67
2019-04-14T15:31:00.067Z,25.20
2019-04-14T15:33:34.386Z,25.90
2019-04-14T15:36:06.165Z,29.97
2019-04-14T15:38:38.294Z,24.00
2019-04-14T15:41:10.386Z,28.17
2019-04-14T15:43:42.111Z,26.33
2019-04-14T15:46:14.430Z,30.33
2019-04-14T15:48:47.856Z,31.50
2019-04-14T15:51:18.870Z,27.33
2019-04-14T15:53:51.171Z,32.63
2019-04-14T15:56:56.810Z,24.73
2019-04-14T15:59:59.272Z,24.03
2019-04-14T16:02:55.697Z,30.47
2019-04-14T16:05:32.031Z,24.30
2019-04-14T16:08:08.243Z,23.57
2019-04-14T16:10:44.754Z,25.70
2019-04-14T16:13:25.921Z,25.17
2019-04-14T16:16:17.888Z,27.20
2019-04-14T16:19:03.110Z,25.60
2019-04-14T16:21:35.187Z,28.43
2019-04-14T16:24:06.902Z,29.10
2019-04-14T16:26:47.557Z,23.40
2019-04-14T16:29:33.011Z,22.80
2019-04-14T16:32:09.981Z,24.10
2019-04-14T16:34:51.339Z,25.30
2019-04-14T16:37:23.268Z,27.80
2019-04-14T16:39:54.682Z,30.50
2019-04-14T16:42:26.246Z,27.17
2019-04-14T16:44:58.375Z,25.23
2019-04-14T16:47:30.337Z,25.90
2019-04-14T16:50:02.222Z,26.40
2019-04-14T16:52:43.355Z,23.40
2019-04-14T16:55:24.476Z,26.30
2019-04-14T16:58:20.374Z,32.70
2019-04-14T17:00:56.223Z,25.77
2019-04-14T17:03:27.873Z,25.60
2019-04-14T17:06:00.820Z,24.20
2019-04-14T17:08:33.096Z,22.53
2019-04-14T17:11:05.661Z,27.33
2019-04-14T17:13:40.581Z,26.57
2019-04-14T17:16:48.955Z,26.70
2019-04-14T17:19:39.916Z,22.97
2019-04-14T17:22:21.808Z,27.40
2019-04-14T17:25:04.530Z,21.27
2019-04-14T17:28:00.496Z,27.03
2019-04-14T17:30:37.468Z,23.40
2019-04-14T17:33:19.264Z,22.27
2019-04-14T17:36:12.039Z,23.03
2019-04-14T17:39:15.844Z,23.83
2019-04-14T17:41:58.397Z,23.40
2019-04-14T17:44:54.796Z,33.23
2019-04-14T17:48:02.316Z,37.23
2019-04-14T17:50:51.147Z,46.73
2019-04-14T17:53:40.593Z,28.43
2019-04-14T17:56:39.884Z,47.70
2019-04-14T17:59:36.089Z,31.00
2019-04-14T18:02:35.837Z,27.43
2019-04-14T18:05:14.637Z,30.73
2019-04-14T18:07:56.221Z,29.23
2019-04-14T18:10:42.782Z,27.07
2019-04-14T18:13:25.839Z,27.93
2019-04-14T18:16:22.053Z,32.67
2019-04-14T18:19:08.606Z,31.37
2019-04-14T18:21:40.119Z,28.10
2019-04-14T18:24:11.693Z,32.87
2019-04-14T18:26:44.719Z,28.70
2019-04-14T18:29:28.939Z,37.43
2019-04-14T18:32:18.395Z,29.30
2019-04-14T18:35:20.900Z,26.03
2019-04-14T18:38:00.434Z,27.47
2019-04-14T18:40:50.813Z,29.23
2019-04-14T18:43:41.658Z,28.13
2019-04-14T18:46:19.229Z,20.87
2019-04-14T18:49:03.329Z,20.20
2019-04-14T18:51:40.981Z,19.83
2019-04-14T18:54:25.240Z,20.80
2019-04-14T18:57:07.700Z,19.40
2019-04-14T18:59:58.156Z,20.97
2019-04-14T19:02:30.920Z,22.00
2019-04-14T19:05:02.605Z,23.83
2019-04-14T19:07:35.346Z,20.70
2019-04-14T19:10:09.474Z,19.90
2019-04-14T19:12:50.956Z,20.67
2019-04-14T19:15:46.105Z,20.17
2019-04-14T19:18:27.584Z,21.10
2019-04-14T19:21:05.168Z,22.27
2019-04-14T19:23:37.184Z,28.53
2019-04-14T19:26:09.578Z,23.30
2019-04-14T19:28:41.183Z,22.00
2019-04-14T19:31:13.535Z,19.60
2019-04-14T19:37:13.809Z,21.30
2019-04-14T19:39:45.582Z,19.63
2019-04-14T19:42:17.490Z,20.43
2019-04-14T19:44:49.641Z,18.77
2019-04-14T19:47:20.910Z,25.27
2019-04-14T19:49:52.777Z,18.77
2019-04-14T19:52:25.303Z,20.53
2019-04-14T19:54:58.013Z,19.97
2019-04-14T19:57:30.267Z,21.03
2019-04-14T20:00:02.246Z,25.23
2019-04-14T20:02:33.292Z,21.30
2019-04-14T20:05:05.443Z,20.40
2019-04-14T20:07:37.911Z,22.50
2019-04-14T20:10:12.218Z,24.27
2019-04-14T20:12:44.007Z,23.47
2019-04-14T20:15:19.958Z,22.60
2019-04-14T20:18:09.975Z,23.17
2019-04-14T20:20:52.883Z,24.80
2019-04-14T20:23:30.188Z,20.43
2019-04-14T20:26:28.504Z,21.93
2019-04-14T20:29:06.745Z,23.38
2019-04-14T20:31:51.631Z,20.27
2019-04-14T20:34:24.606Z,21.48
2019-04-14T20:36:57.530Z,20.88
2019-04-14T20:39:31.332Z,21.00
2019-04-14T20:42:03.007Z,23.13
2019-04-14T20:44:34.906Z,19.80
2019-04-14T20:47:10.361Z,20.12
2019-04-14T20:49:43.889Z,23.85
2019-04-14T20:52:16.116Z,22.15
2019-04-14T20:55:03.954Z,22.82
2019-04-14T20:57:37.802Z,22.25
2019-04-14T21:00:10.139Z,20.82
2019-04-14T21:03:03.540Z,22.58
2019-04-14T21:06:09.711Z,24.63
2019-04-14T21:09:09.826Z,24.23
2019-04-14T21:12:12.254Z,19.30
2019-04-14T21:14:58.888Z,19.02
2019-04-14T21:17:41.617Z,18.30
2019-04-14T21:20:18.723Z,28.62
2019-04-14T21:23:12.815Z,27.05
2019-04-14T21:26:00.899Z,23.00
2019-04-14T21:28:45.628Z,19.35
2019-04-14T21:31:30.925Z,19.77
2019-04-14T21:34:10.315Z,20.80
2019-04-14T21:36:56.167Z,19.40
2019-04-14T21:39:49.570Z,21.43
2019-04-14T21:42:23.780Z,19.83
2019-04-14T21:44:55.705Z,23.05
2019-04-14T21:47:27.191Z,22.60
2019-04-14T21:49:59.962Z,25.30
2019-04-14T21:52:40.096Z,20.97
2019-04-14T21:55:14.550Z,24.33
2019-04-14T21:57:52.428Z,19.17
2019-04-14T22:01:23.451Z,21.50
2019-04-14T22:04:04.245Z,19.35
2019-04-14T22:06:41.184Z,21.25
2019-04-14T22:09:22.481Z,19.17
2019-04-14T22:11:54.551Z,22.15
2019-04-14T22:14:26.630Z,20.85
2019-04-14T22:16:59.679Z,21.12
2019-04-14T22:19:31.057Z,21.50
2019-04-14T22:22:02.498Z,18.17
2019-04-14T22:24:35.445Z,22.30
2019-04-14T22:27:07.685Z,18.42
2019-04-14T22:29:39.631Z,20.40
2019-04-14T22:32:11.592Z,18.82
2019-04-14T22:34:43.497Z,18.32
2019-04-14T22:37:15.597Z,18.23
2019-04-14T22:39:46.556Z,19.35
2019-04-14T22:42:18.057Z,16.35
2019-04-14T22:44:50.208Z,19.55
2019-04-14T22:47:22.590Z,18.15
2019-04-14T22:49:53.860Z,20.23
2019-04-14T22:52:25.284Z,20.35
2019-04-14T22:54:56.617Z,18.05
2019-04-14T22:57:27.887Z,17.70
2019-04-14T23:00:00.036Z,16.85
2019-04-14T23:02:53.012Z,17.57
2019-04-14T23:05:42.879Z,18.77
2019-04-14T23:08:39.578Z,15.63
2019-04-14T23:11:29.304Z,17.80
2019-04-14T23:14:31.412Z,16.57
2019-04-14T23:17:19.996Z,18.77
2019-04-14T23:19:56.424Z,17.90
2019-04-14T23:22:37.350Z,17.90
2019-04-14T23:25:08.672Z,18.73
2019-04-14T23:27:40.199Z,18.37
2019-04-14T23:30:12.382Z,17.07
2019-04-14T23:32:43.101Z,18.05
2019-04-14T23:35:14.257Z,18.25
2019-04-14T23:37:45.846Z,18.90
2019-04-14T23:40:17.008Z,20.40
2019-04-14T23:42:48.552Z,18.10
2019-04-14T23:45:19.596Z,19.82
2019-04-14T23:47:50.788Z,18.87
2019-04-14T23:50:22.602Z,20.65
2019-04-14T23:52:54.259Z,18.37
2019-04-14T23:55:24.781Z,20.37
2019-04-14T23:57:56.297Z,18.12
